Time;durP1;ratioP1;P1;durP2;ratioP2;P2;SDS_P1;SDS_P2;PMS_P1;PMS_P2;Temp;Humidity;BMP_temperature;BMP_pressure;BME280_temperature;BME280_humidity;BME280_pressure;Samples;Min_cycle;Max_cycle;Signal;HPM_P1;HPM_P2
2021/12/03 00:02:10;;;;;;;12.20;7.57;;;;;;;;;;5033776;28;20627;-72
2021/12/03 00:05:14;;;;;;;10.27;7.10;;;;;;;;;;5021575;28;21172;-72
2021/12/03 00:08:19;;;;;;;10.80;7.20;;;;;;;;;;5028773;28;20623;-72
2021/12/03 00:11:24;;;;;;;9.53;7.27;;;;;;;;;;5033529;28;20627;-72
2021/12/03 00:14:28;;;;;;;12.17;7.67;;;;;;;;;;5033544;28;20595;-72
2021/12/03 00:17:33;;;;;;;11.23;7.33;;;;;;;;;;5033321;28;20944;-72
2021/12/03 00:20:37;;;;;;;11.03;7.57;;;;;;;;;;5033226;28;20627;-72
2021/12/03 00:23:41;;;;;;;13.00;7.67;;;;;;;;;;5033146;28;20631;-72
2021/12/03 00:26:45;;;;;;;14.27;8.40;;;;;;;;;;5033357;28;20595;-72
2021/12/03 00:29:49;;;;;;;11.70;7.80;;;;;;;;;;5021098;28;20591;-72
2021/12/03 00:32:53;;;;;;;14.50;8.93;;;;;;;;;;5033585;28;20552;-72
2021/12/03 00:36:03;;;;;;;15.33;9.60;;;;;;;;;;5033073;28;20587;-72
2021/12/03 00:39:08;;;;;;;14.00;8.10;;;;;;;;;;5033239;28;20548;-72
2021/12/03 00:42:16;;;;;;;14.80;8.23;;;;;;;;;;5033364;28;20619;-72
2021/12/03 00:45:21;;;;;;;11.20;7.23;;;;;;;;;;5033059;28;20588;-72
2021/12/03 00:48:25;;;;;;;12.20;7.93;;;;;;;;;;5032661;28;20587;-72
2021/12/03 00:51:29;;;;;;;11.47;7.80;;;;;;;;;;5021167;28;20619;-72
2021/12/03 00:54:33;;;;;;;14.73;9.40;;;;;;;;;;5031719;28;20583;-72
2021/12/03 00:57:38;;;;;;;13.23;8.50;;;;;;;;;;5032194;28;21190;-72
2021/12/03 01:00:42;;;;;;;12.33;8.30;;;;;;;;;;5031311;28;20615;-72
2021/12/03 01:03:46;;;;;;;15.07;9.43;;;;;;;;;;5033038;28;20610;-72
2021/12/03 01:06:50;;;;;;;13.37;8.83;;;;;;;;;;5032797;28;20631;-72
2021/12/03 01:09:54;;;;;;;16.57;9.70;;;;;;;;;;5033167;28;20544;-72
2021/12/03 01:12:58;;;;;;;12.30;8.30;;;;;;;;;;5012262;28;20588;-72
2021/12/03 01:16:04;;;;;;;13.83;8.73;;;;;;;;;;5015196;28;20930;-72
2021/12/03 01:19:09;;;;;;;12.93;8.30;;;;;;;;;;5032930;28;20544;-72
2021/12/03 01:22:13;;;;;;;12.83;7.57;;;;;;;;;;5032969;28;21210;-72
2021/12/03 01:25:20;;;;;;;12.90;8.10;;;;;;;;;;5032934;28;20588;-72
2021/12/03 01:28:26;;;;;;;11.40;7.40;;;;;;;;;;5032605;28;20763;-72
2021/12/03 01:31:30;;;;;;;12.83;7.47;;;;;;;;;;5032580;28;20655;-72
2021/12/03 01:34:36;;;;;;;13.50;8.43;;;;;;;;;;5020561;28;20897;-72
2021/12/03 01:37:41;;;;;;;12.60;7.77;;;;;;;;;;5032512;28;20591;-73
2021/12/03 01:40:46;;;;;;;12.60;7.60;;;;;;;;;;5032834;28;20882;-72
2021/12/03 01:43:51;;;;;;;13.20;8.17;;;;;;;;;;5032322;28;20592;-72
2021/12/03 01:46:55;;;;;;;13.97;7.87;;;;;;;;;;5032337;28;20579;-72
2021/12/03 01:49:59;;;;;;;14.87;8.80;;;;;;;;;;5020358;28;20587;-72
2021/12/03 01:53:05;;;;;;;14.53;8.50;;;;;;;;;;5031064;28;20583;-72
2021/12/03 01:56:12;;;;;;;13.43;8.60;;;;;;;;;;5020374;28;20591;-72
2021/12/03 01:59:16;;;;;;;12.77;8.30;;;;;;;;;;5020123;28;20929;-72
2021/12/03 02:02:20;;;;;;;15.40;8.97;;;;;;;;;;5032672;28;20956;-72
2021/12/03 02:05:25;;;;;;;13.00;8.73;;;;;;;;;;5032058;28;20973;-72
2021/12/03 02:08:29;;;;;;;13.33;8.50;;;;;;;;;;5032297;28;20607;-72
2021/12/03 02:11:34;;;;;;;15.67;9.93;;;;;;;;;;5033145;28;20638;-72
2021/12/03 02:14:38;;;;;;;13.60;8.60;;;;;;;;;;5035414;28;20933;-72
2021/12/03 02:17:42;;;;;;;15.47;8.57;;;;;;;;;;5036184;28;20536;-72
2021/12/03 02:20:51;;;;;;;14.80;8.30;;;;;;;;;;5016736;28;20631;-72
2021/12/03 02:23:56;;;;;;;14.33;8.67;;;;;;;;;;5004068;28;20540;-72
2021/12/03 02:27:00;;;;;;;14.63;8.93;;;;;;;;;;5033053;28;20588;-72
2021/12/03 02:30:05;;;;;;;15.60;8.97;;;;;;;;;;5035813;28;20544;-72
2021/12/03 02:33:10;;;;;;;15.10;8.73;;;;;;;;;;5023573;28;20535;-72
2021/12/03 02:36:15;;;;;;;13.60;9.73;;;;;;;;;;5016129;28;20525;-72
2021/12/03 02:39:19;;;;;;;15.90;9.27;;;;;;;;;;5016215;28;20863;-72
2021/12/03 02:42:23;;;;;;;16.23;9.40;;;;;;;;;;5011387;28;20980;-72
2021/12/03 02:45:27;;;;;;;14.33;9.00;;;;;;;;;;5035454;28;20583;-72
2021/12/03 02:48:35;;;;;;;14.30;9.53;;;;;;;;;;5035197;28;20543;-72
2021/12/03 02:51:40;;;;;;;12.87;8.97;;;;;;;;;;5034742;28;20651;-72
2021/12/03 02:54:44;;;;;;;14.03;8.60;;;;;;;;;;5015869;28;20541;-72
2021/12/03 02:57:48;;;;;;;14.90;9.73;;;;;;;;;;5014594;28;20557;-72
2021/12/03 03:00:53;;;;;;;15.10;9.87;;;;;;;;;;5015408;28;20619;-72
2021/12/03 03:03:57;;;;;;;15.77;9.20;;;;;;;;;;5018741;28;20587;-72
2021/12/03 03:07:01;;;;;;;18.20;10.77;;;;;;;;;;5034689;28;21202;-72
2021/12/03 03:10:10;;;;;;;14.57;9.43;;;;;;;;;;5034646;28;20596;-72
2021/12/03 03:13:14;;;;;;;18.30;9.43;;;;;;;;;;5034823;28;20555;-72
2021/12/03 03:16:19;;;;;;;14.73;9.07;;;;;;;;;;5016145;28;20604;-72
2021/12/03 03:19:23;;;;;;;13.23;8.70;;;;;;;;;;5015027;28;20557;-72
2021/12/03 03:22:28;;;;;;;11.17;8.03;;;;;;;;;;5014693;28;20666;-72
2021/12/03 03:25:32;;;;;;;11.17;7.80;;;;;;;;;;5030576;28;20639;-72
2021/12/03 03:28:39;;;;;;;14.30;8.63;;;;;;;;;;5007647;28;20600;-72
2021/12/03 03:31:44;;;;;;;14.10;9.43;;;;;;;;;;5027137;28;20651;-72
2021/12/03 03:34:48;;;;;;;14.17;9.77;;;;;;;;;;5034187;28;20580;-72
2021/12/03 03:37:52;;;;;;;13.97;9.80;;;;;;;;;;5034222;28;20591;-72
2021/12/03 03:40:57;;;;;;;15.33;9.67;;;;;;;;;;5033596;28;20631;-72
2021/12/03 03:44:01;;;;;;;18.73;10.20;;;;;;;;;;5022090;28;20544;-72
2021/12/03 03:47:07;;;;;;;14.63;9.53;;;;;;;;;;5021174;28;20588;-72
2021/12/03 03:50:13;;;;;;;17.97;10.97;;;;;;;;;;5021977;28;20897;-72
2021/12/03 03:53:18;;;;;;;14.27;9.40;;;;;;;;;;5032987;28;20583;-72
2021/12/03 03:56:22;;;;;;;13.67;10.03;;;;;;;;;;5034259;28;20536;-72
2021/12/03 03:59:26;;;;;;;13.33;8.87;;;;;;;;;;5014155;28;20541;-72
2021/12/03 04:02:30;;;;;;;13.07;9.17;;;;;;;;;;5014496;28;20624;-72
2021/12/03 04:05:35;;;;;;;13.73;9.23;;;;;;;;;;5033692;28;20596;-72
2021/12/03 04:08:39;;;;;;;13.73;9.90;;;;;;;;;;5033470;28;20615;-72
2021/12/03 04:11:43;;;;;;;14.73;9.93;;;;;;;;;;5033445;28;20992;-72
2021/12/03 04:14:47;;;;;;;11.53;9.40;;;;;;;;;;5033634;28;20556;-72
2021/12/03 04:17:51;;;;;;;17.73;10.00;;;;;;;;;;5020940;28;20584;-72
2021/12/03 04:20:55;;;;;;;14.97;9.23;;;;;;;;;;5033270;28;20657;-72
2021/12/03 04:24:00;;;;;;;12.90;9.20;;;;;;;;;;5033417;28;20603;-72
2021/12/03 04:27:04;;;;;;;12.50;9.40;;;;;;;;;;5033149;28;20536;-72
2021/12/03 04:30:13;;;;;;;13.70;9.80;;;;;;;;;;5033661;28;20544;-72
2021/12/03 04:33:18;;;;;;;14.63;9.83;;;;;;;;;;5033585;28;21088;-72
2021/12/03 04:36:22;;;;;;;12.63;9.10;;;;;;;;;;5032924;28;21175;-72
2021/12/03 04:39:26;;;;;;;13.63;9.27;;;;;;;;;;5020501;28;20615;-72
2021/12/03 04:42:30;;;;;;;12.57;9.30;;;;;;;;;;5019777;28;20651;-72
2021/12/03 04:45:34;;;;;;;14.63;9.50;;;;;;;;;;5032666;28;20980;-72
2021/12/03 04:48:38;;;;;;;13.27;9.17;;;;;;;;;;5033351;28;20890;-72
2021/12/03 04:51:42;;;;;;;14.33;9.00;;;;;;;;;;5020849;28;20647;-72
2021/12/03 04:54:46;;;;;;;13.50;10.10;;;;;;;;;;5009402;28;21185;-71
2021/12/03 04:57:53;;;;;;;13.53;9.53;;;;;;;;;;5009848;28;20560;-72
2021/12/03 05:00:58;;;;;;;13.33;8.73;;;;;;;;;;5043515;28;20615;-72
2021/12/03 05:04:02;;;;;;;13.57;9.03;;;;;;;;;;5033094;28;20914;-72
2021/12/03 05:10:12;;;;;;;10.43;7.70;;;;;;;;;;5032821;28;20603;-72
2021/12/03 05:13:23;;;;;;;12.83;8.23;;;;;;;;;;5032218;28;20591;-72
2021/12/03 05:16:27;;;;;;;10.13;7.80;;;;;;;;;;5033110;28;20540;-72
2021/12/03 05:19:31;;;;;;;11.77;7.77;;;;;;;;;;5032911;28;20552;-72
2021/12/03 05:22:35;;;;;;;10.90;7.60;;;;;;;;;;5032452;28;21241;-72
2021/12/03 05:25:40;;;;;;;11.53;7.40;;;;;;;;;;5032659;28;20591;-72
2021/12/03 05:28:44;;;;;;;9.47;7.20;;;;;;;;;;5033280;28;20536;-72
2021/12/03 05:31:49;;;;;;;10.40;7.83;;;;;;;;;;5032371;28;20993;-72
2021/12/03 05:34:53;;;;;;;10.10;7.57;;;;;;;;;;5020367;28;20592;-72
2021/12/03 05:37:57;;;;;;;11.50;7.50;;;;;;;;;;5015890;28;20611;-72
2021/12/03 05:41:01;;;;;;;13.80;8.30;;;;;;;;;;5032679;28;20622;-72
2021/12/03 05:44:06;;;;;;;9.80;7.40;;;;;;;;;;5012908;28;20553;-72
2021/12/03 05:47:10;;;;;;;9.13;6.87;;;;;;;;;;5030272;28;20615;-72
2021/12/03 05:50:15;;;;;;;10.77;7.20;;;;;;;;;;5024004;28;21111;-72
2021/12/03 05:53:19;;;;;;;7.10;5.87;;;;;;;;;;5036303;28;20873;-72
2021/12/03 05:56:24;;;;;;;10.93;7.37;;;;;;;;;;5035365;28;20579;-72
2021/12/03 05:59:28;;;;;;;11.20;7.47;;;;;;;;;;5036398;28;20540;-72
2021/12/03 06:02:32;;;;;;;9.17;6.53;;;;;;;;;;5024088;28;20623;-72
2021/12/03 06:05:39;;;;;;;9.87;7.13;;;;;;;;;;5035699;28;21229;-72
2021/12/03 06:08:44;;;;;;;9.43;7.23;;;;;;;;;;5035676;28;20627;-72
2021/12/03 06:11:48;;;;;;;8.07;6.77;;;;;;;;;;5023641;28;20619;-72
2021/12/03 06:14:52;;;;;;;10.63;7.27;;;;;;;;;;5025602;28;20619;-72
2021/12/03 06:17:57;;;;;;;8.83;6.57;;;;;;;;;;5035702;28;20583;-72
2021/12/03 06:21:03;;;;;;;10.10;7.00;;;;;;;;;;5046562;28;20627;-72
2021/12/03 06:24:07;;;;;;;10.27;7.20;;;;;;;;;;5023396;28;21162;-72
2021/12/03 06:27:11;;;;;;;11.93;7.07;;;;;;;;;;5034845;28;20623;-72
2021/12/03 06:30:18;;;;;;;10.03;6.50;;;;;;;;;;5028756;28;20575;-72
2021/12/03 06:33:23;;;;;;;8.27;6.03;;;;;;;;;;5035348;28;20595;-71
2021/12/03 06:36:26;;;;;;;10.80;6.50;;;;;;;;;;5034940;28;20584;-72
2021/12/03 06:39:31;;;;;;;9.93;6.33;;;;;;;;;;5023446;28;20576;-72
2021/12/03 06:42:35;;;;;;;9.80;6.37;;;;;;;;;;5023033;28;20646;-72
2021/12/03 06:45:39;;;;;;;11.17;7.27;;;;;;;;;;5035766;28;20925;-72
2021/12/03 06:48:43;;;;;;;10.10;7.00;;;;;;;;;;5034061;28;20622;-72
2021/12/03 06:51:48;;;;;;;9.87;6.87;;;;;;;;;;5022645;28;20627;-72
2021/12/03 06:54:57;;;;;;;9.63;7.17;;;;;;;;;;5034838;28;20983;-72
2021/12/03 06:58:01;;;;;;;13.00;9.73;;;;;;;;;;5022336;28;20552;-72
2021/12/03 07:01:05;;;;;;;11.73;7.80;;;;;;;;;;5022956;28;21186;-72
2021/12/03 07:04:11;;;;;;;13.10;7.63;;;;;;;;;;5035065;28;20552;-72
2021/12/03 07:07:15;;;;;;;10.70;8.17;;;;;;;;;;5022600;28;20651;-72
2021/12/03 07:10:19;;;;;;;14.33;8.60;;;;;;;;;;5023012;28;20862;-72
2021/12/03 07:13:26;;;;;;;13.57;7.97;;;;;;;;;;5034748;28;20595;-72
2021/12/03 07:16:30;;;;;;;12.87;7.90;;;;;;;;;;5011235;28;20591;-72
2021/12/03 07:19:34;;;;;;;10.50;7.97;;;;;;;;;;5034743;28;20548;-72
2021/12/03 07:22:38;;;;;;;11.93;7.97;;;;;;;;;;5022371;28;20622;-72
2021/12/03 07:25:43;;;;;;;11.77;8.40;;;;;;;;;;5033289;28;20571;-72
2021/12/03 07:28:47;;;;;;;11.40;7.63;;;;;;;;;;5021953;28;20607;-72
2021/12/03 07:31:52;;;;;;;11.17;7.90;;;;;;;;;;5010007;28;20656;-72
2021/12/03 07:34:56;;;;;;;10.77;7.53;;;;;;;;;;5014466;28;20608;-72
2021/12/03 07:38:00;;;;;;;11.93;8.17;;;;;;;;;;5014505;28;20557;-72
2021/12/03 07:41:05;;;;;;;11.27;8.00;;;;;;;;;;5014361;28;20628;-72
2021/12/03 07:44:09;;;;;;;12.07;8.07;;;;;;;;;;5014331;28;20596;-72
2021/12/03 07:47:13;;;;;;;10.70;7.87;;;;;;;;;;5014152;28;20989;-72
2021/12/03 07:50:18;;;;;;;12.03;8.00;;;;;;;;;;4991039;28;20545;-72
2021/12/03 07:53:23;;;;;;;11.93;8.03;;;;;;;;;;5018231;28;20924;-72
2021/12/03 07:56:27;;;;;;;11.80;7.90;;;;;;;;;;5026883;28;20615;-72
2021/12/03 07:59:31;;;;;;;11.93;7.23;;;;;;;;;;5031660;28;20552;-72
2021/12/03 08:02:35;;;;;;;11.67;7.50;;;;;;;;;;5029564;28;20630;-71
2021/12/03 08:05:40;;;;;;;11.37;7.77;;;;;;;;;;5018321;28;20563;-71
2021/12/03 08:08:44;;;;;;;12.60;7.97;;;;;;;;;;5049179;28;20606;-72
2021/12/03 08:11:49;;;;;;;13.83;10.00;;;;;;;;;;5037419;28;20626;-72
2021/12/03 08:14:53;;;;;;;9.13;7.37;;;;;;;;;;5025265;28;21458;-72
2021/12/03 08:17:57;;;;;;;8.20;6.50;;;;;;;;;;5017999;28;20568;-72
2021/12/03 08:21:03;;;;;;;9.37;7.00;;;;;;;;;;5018070;28;20968;-72
2021/12/03 08:24:07;;;;;;;10.33;7.23;;;;;;;;;;5039973;28;20592;-72
2021/12/03 08:27:12;;;;;;;17.17;10.97;;;;;;;;;;5029827;28;20607;-72
2021/12/03 08:30:16;;;;;;;10.10;7.77;;;;;;;;;;5032006;28;21209;-72
2021/12/03 08:33:20;;;;;;;12.63;8.03;;;;;;;;;;5023911;28;20572;-72
2021/12/03 08:36:24;;;;;;;10.40;7.07;;;;;;;;;;5015334;28;20572;-72
2021/12/03 08:39:30;;;;;;;9.13;6.70;;;;;;;;;;5021423;28;20579;-72
2021/12/03 08:42:34;;;;;;;16.77;10.50;;;;;;;;;;5033093;28;20954;-72
2021/12/03 08:45:39;;;;;;;14.93;9.90;;;;;;;;;;5033024;28;20552;-72
2021/12/03 08:48:46;;;;;;;13.47;7.63;;;;;;;;;;5031808;28;20576;-72
2021/12/03 08:52:05;;;;;;;13.77;8.87;;;;;;;;;;5018648;28;20639;-72
2021/12/03 08:55:09;;;;;;;12.07;9.23;;;;;;;;;;5030872;28;20568;-72
2021/12/03 08:58:16;;;;;;;10.07;7.40;;;;;;;;;;5031218;28;21131;-73
2021/12/03 09:01:20;;;;;;;11.53;7.80;;;;;;;;;;5037895;28;20634;-72
2021/12/03 09:04:24;;;;;;;10.10;6.87;;;;;;;;;;5029945;28;20572;-72
2021/12/03 09:07:28;;;;;;;9.50;6.97;;;;;;;;;;5021192;28;21259;-73
2021/12/03 09:10:33;;;;;;;9.80;7.07;;;;;;;;;;5013084;28;20544;-72
2021/12/03 09:13:39;;;;;;;11.00;7.90;;;;;;;;;;5001260;28;20918;-72
2021/12/03 09:16:47;;;;;;;11.63;7.90;;;;;;;;;;5013359;28;21077;-72
2021/12/03 09:19:58;;;;;;;12.27;7.87;;;;;;;;;;4990157;28;20890;-73
2021/12/03 09:23:07;;;;;;;14.20;8.37;;;;;;;;;;4994019;28;20532;-72
2021/12/03 09:26:15;;;;;;;9.03;7.07;;;;;;;;;;5005367;28;21057;-72
2021/12/03 09:29:26;;;;;;;9.17;7.30;;;;;;;;;;5009707;28;20609;-72
2021/12/03 09:32:32;;;;;;;9.93;7.57;;;;;;;;;;5007395;28;21236;-72
2021/12/03 09:35:45;;;;;;;10.70;8.53;;;;;;;;;;5015411;28;20568;-72
2021/12/03 09:38:50;;;;;;;9.67;7.10;;;;;;;;;;4996556;28;20581;-72
2021/12/03 09:41:55;;;;;;;11.20;7.37;;;;;;;;;;4997129;28;20624;-72
2021/12/03 09:45:00;;;;;;;10.50;7.57;;;;;;;;;;5009169;28;20583;-72
2021/12/03 09:48:55;;;;;;;10.63;7.33;;;;;;;;;;5024060;28;20603;-73
2021/12/03 09:52:03;;;;;;;11.23;7.73;;;;;;;;;;5040152;28;20623;-72
2021/12/03 09:55:14;;;;;;;13.40;10.33;;;;;;;;;;5020230;28;21151;-72
2021/12/03 09:58:50;;;;;;;13.47;9.50;;;;;;;;;;5002555;28;20561;-72
2021/12/03 10:02:05;;;;;;;9.93;7.50;;;;;;;;;;5012811;28;20619;-72
2021/12/03 10:10:08;;;;;;;11.20;7.10;;;;;;;;;;5031324;28;20659;-72
2021/12/03 10:12:39;;;;;;;8.10;6.10;;;;;;;;;;5032636;28;21241;-71
2021/12/03 10:19:35;;;;;;;9.30;5.90;;;;;;;;;;4988997;28;20612;-72
2021/12/03 10:39:04;;;;;;;8.70;6.20;;;;;;;;;;5031987;28;21169;-71
2021/12/03 10:45:57;;;;;;;15.53;10.80;;;;;;;;;;5019799;28;20563;-71
2021/12/03 10:49:39;;;;;;;9.97;6.50;;;;;;;;;;5019454;28;20556;-71
2021/12/03 10:56:25;;;;;;;6.67;5.53;;;;;;;;;;5031806;28;20607;-71
2021/12/03 11:45:24;;;;;;;5.30;3.70;;;;;;;;;;5020082;28;20607;-72
2021/12/03 12:09:49;;;;;;;6.50;5.50;;;;;;;;;;5033714;28;20592;-72
2021/12/03 12:31:02;;;;;;;6.53;3.33;;;;;;;;;;5033032;28;20572;-72
2021/12/03 13:05:27;;;;;;;4.20;3.10;;;;;;;;;;5032982;28;20552;-72
2021/12/03 14:01:47;;;;;;;5.57;4.10;;;;;;;;;;5029442;28;20627;-76
2021/12/03 14:11:54;;;;;;;5.87;4.00;;;;;;;;;;5032380;28;20622;-76
2021/12/03 14:38:11;;;;;;;19.47;13.13;;;;;;;;;;5021118;28;20572;-73
2021/12/03 14:42:18;;;;;;;34.50;26.60;;;;;;;;;;5035247;28;20650;-73
2021/12/03 14:45:15;;;;;;;37.07;23.13;;;;;;;;;;5022472;28;20603;-73
2021/12/03 14:55:25;;;;;;;9.73;5.87;;;;;;;;;;5015947;28;20541;-73
2021/12/03 14:58:48;;;;;;;5.93;4.13;;;;;;;;;;5015016;28;20557;-73
2021/12/03 15:02:04;;;;;;;6.17;4.40;;;;;;;;;;5036535;28;20659;-73
2021/12/03 15:08:17;;;;;;;6.23;4.00;;;;;;;;;;5035304;28;20592;-73
2021/12/03 15:15:00;;;;;;;6.77;4.17;;;;;;;;;;5022812;28;20564;-72
2021/12/03 15:18:36;;;;;;;5.83;4.00;;;;;;;;;;5034576;28;20540;-73
2021/12/03 15:25:20;;;;;;;6.40;3.70;;;;;;;;;;5034916;28;20540;-73
2021/12/03 15:41:47;;;;;;;4.80;3.80;;;;;;;;;;5034247;28;20977;-74
2021/12/03 15:58:33;;;;;;;4.10;3.67;;;;;;;;;;5021958;28;21115;-73
2021/12/03 16:05:09;;;;;;;7.33;3.67;;;;;;;;;;5029327;28;20595;-74
2021/12/03 16:11:56;;;;;;;6.90;4.90;;;;;;;;;;5003518;28;20623;-74
2021/12/03 16:21:49;;;;;;;13.53;7.60;;;;;;;;;;5002079;28;20997;-74
2021/12/03 16:25:06;;;;;;;6.37;4.50;;;;;;;;;;5029680;28;20599;-73
2021/12/03 16:49:03;;;;;;;8.30;4.87;;;;;;;;;;5017495;28;20603;-74
2021/12/03 16:54:55;;;;;;;7.23;5.57;;;;;;;;;;5029632;28;20591;-73
2021/12/03 16:57:59;;;;;;;13.77;6.37;;;;;;;;;;5016961;28;20567;-73
2021/12/03 17:01:09;;;;;;;9.13;7.57;;;;;;;;;;5017047;28;20627;-73
2021/12/03 17:14:12;;;;;;;9.63;5.80;;;;;;;;;;5009100;28;20553;-74
2021/12/03 17:18:14;;;;;;;8.27;5.80;;;;;;;;;;5009062;28;20934;-75
2021/12/03 17:22:03;;;;;;;9.33;5.43;;;;;;;;;;5009054;28;20655;-73
2021/12/03 17:48:23;;;;;;;7.13;5.67;;;;;;;;;;5012299;28;20596;-74
2021/12/03 17:51:45;;;;;;;10.10;5.53;;;;;;;;;;5012533;28;20648;-75
2021/12/03 18:01:34;;;;;;;9.13;5.50;;;;;;;;;;5001370;28;20648;-74
2021/12/03 18:04:56;;;;;;;7.17;5.40;;;;;;;;;;5001776;28;20608;-74
2021/12/03 18:08:22;;;;;;;11.60;5.97;;;;;;;;;;5012389;28;20557;-73
2021/12/03 18:11:58;;;;;;;9.00;6.03;;;;;;;;;;5015584;28;20651;-73
2021/12/03 18:45:25;;;;;;;8.50;5.43;;;;;;;;;;5019368;28;20584;-73
2021/12/03 18:55:31;;;;;;;9.60;5.77;;;;;;;;;;5029352;28;20599;-73
2021/12/03 18:58:36;;;;;;;9.40;6.20;;;;;;;;;;5000399;28;20595;-74
2021/12/03 19:01:40;;;;;;;7.40;5.13;;;;;;;;;;4999807;28;21203;-74
2021/12/03 19:04:50;;;;;;;7.23;5.27;;;;;;;;;;5025724;28;20584;-73
2021/12/03 19:08:05;;;;;;;6.93;4.63;;;;;;;;;;5031009;28;20972;-74
2021/12/03 19:11:17;;;;;;;7.43;4.30;;;;;;;;;;5031133;28;20667;-75
2021/12/03 19:14:23;;;;;;;5.97;4.20;;;;;;;;;;5008102;28;20560;-74
2021/12/03 19:17:35;;;;;;;7.23;4.43;;;;;;;;;;5031251;28;21197;-74
2021/12/03 19:20:42;;;;;;;6.13;4.03;;;;;;;;;;5018392;28;20560;-74
2021/12/03 19:23:46;;;;;;;5.93;4.30;;;;;;;;;;5028729;28;20595;-74
2021/12/03 19:26:50;;;;;;;5.70;4.00;;;;;;;;;;5019138;28;21155;-74
2021/12/03 19:29:56;;;;;;;5.33;4.00;;;;;;;;;;5030059;28;20639;-74
2021/12/03 19:33:02;;;;;;;6.63;4.70;;;;;;;;;;5030511;28;20627;-74
2021/12/03 19:36:08;;;;;;;5.67;3.73;;;;;;;;;;5031059;28;21126;-73
2021/12/03 19:39:16;;;;;;;5.83;3.70;;;;;;;;;;5000550;28;21389;-73
2021/12/03 19:42:27;;;;;;;5.57;3.93;;;;;;;;;;5030629;28;21239;-74
2021/12/03 19:45:35;;;;;;;7.07;3.87;;;;;;;;;;5018370;28;20606;-73
2021/12/03 19:49:07;;;;;;;4.67;3.80;;;;;;;;;;5011258;28;20607;-74
2021/12/03 19:52:13;;;;;;;6.07;4.17;;;;;;;;;;5009028;28;20650;-74
2021/12/03 19:55:18;;;;;;;5.60;4.40;;;;;;;;;;5018596;28;20560;-74
2021/12/03 19:58:22;;;;;;;5.67;4.17;;;;;;;;;;5009452;28;21048;-74
2021/12/03 20:01:33;;;;;;;6.53;4.20;;;;;;;;;;5011165;28;20632;-74
2021/12/03 20:04:37;;;;;;;8.07;4.43;;;;;;;;;;5007494;28;20627;-73
2021/12/03 20:07:41;;;;;;;5.73;4.87;;;;;;;;;;5030441;28;20663;-73
2021/12/03 20:10:48;;;;;;;9.70;4.90;;;;;;;;;;5029632;28;20635;-73
2021/12/03 20:13:55;;;;;;;8.13;5.23;;;;;;;;;;5030366;28;20556;-72
2021/12/03 20:17:05;;;;;;;6.03;4.50;;;;;;;;;;5030332;28;20591;-73
2021/12/03 20:20:10;;;;;;;5.43;3.87;;;;;;;;;;5029971;28;20591;-74
2021/12/03 20:33:21;;;;;;;8.23;4.97;;;;;;;;;;5029703;28;20631;-74
2021/12/03 20:39:35;;;;;;;6.50;4.37;;;;;;;;;;5012187;28;20622;-73
2021/12/03 21:09:29;;;;;;;11.17;6.40;;;;;;;;;;5024199;28;20631;-73
2021/12/03 21:12:47;;;;;;;13.43;6.07;;;;;;;;;;5029535;28;20649;-73
2021/12/03 21:16:08;;;;;;;9.00;5.67;;;;;;;;;;5029439;28;20941;-73
2021/12/03 21:19:36;;;;;;;9.37;5.67;;;;;;;;;;5021153;28;20591;-72
2021/12/03 21:22:46;;;;;;;10.07;6.20;;;;;;;;;;5020666;28;20623;-72
2021/12/03 21:25:54;;;;;;;9.20;6.17;;;;;;;;;;5018587;28;20599;-72
2021/12/03 21:39:01;;;;;;;10.83;6.10;;;;;;;;;;5033069;28;20564;-72
2021/12/03 21:42:06;;;;;;;9.00;5.97;;;;;;;;;;5033169;28;20642;-72
2021/12/03 21:45:10;;;;;;;8.60;5.80;;;;;;;;;;5020761;28;20603;-72
2021/12/03 21:48:15;;;;;;;7.60;5.40;;;;;;;;;;5024689;28;20634;-73
2021/12/03 21:51:22;;;;;;;10.40;6.13;;;;;;;;;;5020572;28;20659;-73
2021/12/03 21:54:26;;;;;;;9.33;5.30;;;;;;;;;;5008948;28;20619;-73
2021/12/03 21:57:30;;;;;;;8.20;5.17;;;;;;;;;;5012887;28;20557;-73
2021/12/03 22:00:35;;;;;;;11.03;6.17;;;;;;;;;;5012971;28;20599;-73
2021/12/03 22:03:39;;;;;;;6.50;4.97;;;;;;;;;;5018472;28;20619;-73
2021/12/03 22:06:43;;;;;;;9.00;5.23;;;;;;;;;;5032553;28;20615;-73
2021/12/03 22:09:48;;;;;;;7.57;5.37;;;;;;;;;;5031469;28;20631;-74
2021/12/03 22:12:52;;;;;;;8.67;5.03;;;;;;;;;;5026181;28;20639;-73
2021/12/03 22:16:00;;;;;;;7.37;5.17;;;;;;;;;;5032484;28;20591;-73
2021/12/03 22:19:04;;;;;;;6.63;4.80;;;;;;;;;;5032333;28;20591;-73
2021/12/03 22:22:09;;;;;;;6.97;4.90;;;;;;;;;;5029461;23;20620;-75
2021/12/03 22:25:13;;;;;;;6.47;4.27;;;;;;;;;;4995537;28;20554;-74
2021/12/03 22:28:18;;;;;;;7.50;4.10;;;;;;;;;;4983549;28;20558;-73
2021/12/03 22:31:22;;;;;;;8.33;4.80;;;;;;;;;;4989340;28;21036;-75
2021/12/03 22:34:26;;;;;;;7.20;4.83;;;;;;;;;;4974585;28;20601;-75
2021/12/03 22:37:30;;;;;;;8.30;4.40;;;;;;;;;;4992648;28;20613;-75
2021/12/03 22:40:37;;;;;;;5.63;4.50;;;;;;;;;;4960852;28;20605;-75
2021/12/03 22:43:42;;;;;;;6.00;3.87;;;;;;;;;;4980667;28;20912;-75
2021/12/03 22:47:00;;;;;;;7.63;4.57;;;;;;;;;;4969100;28;20565;-74
2021/12/03 22:50:17;;;;;;;7.17;4.00;;;;;;;;;;4989872;28;20562;-74
2021/12/03 22:53:21;;;;;;;6.37;4.17;;;;;;;;;;4964724;28;20601;-73
2021/12/03 22:56:25;;;;;;;5.90;3.87;;;;;;;;;;4974423;28;21204;-73
2021/12/03 22:59:29;;;;;;;5.27;3.17;;;;;;;;;;4961263;28;20656;-74
2021/12/03 23:02:34;;;;;;;6.43;3.30;;;;;;;;;;4973384;28;20983;-74
2021/12/03 23:05:39;;;;;;;5.93;3.90;;;;;;;;;;4980027;28;20565;-74
2021/12/03 23:08:44;;;;;;;4.87;3.63;;;;;;;;;;4973107;28;20602;-74
2021/12/03 23:11:48;;;;;;;5.83;3.90;;;;;;;;;;4972240;28;21217;-73
2021/12/03 23:14:53;;;;;;;5.73;3.40;;;;;;;;;;4960481;28;20566;-74
2021/12/03 23:17:58;;;;;;;5.07;3.50;;;;;;;;;;4967894;28;20601;-74
2021/12/03 23:21:07;;;;;;;5.67;4.07;;;;;;;;;;4989852;28;20652;-74
2021/12/03 23:24:11;;;;;;;5.10;3.77;;;;;;;;;;4982163;28;20625;-74
2021/12/03 23:27:15;;;;;;;5.57;3.73;;;;;;;;;;4975925;28;20562;-74
2021/12/03 23:30:19;;;;;;;7.63;3.70;;;;;;;;;;4983085;28;20593;-73
2021/12/03 23:33:29;;;;;;;6.03;3.87;;;;;;;;;;4984325;28;20593;-73
2021/12/03 23:36:34;;;;;;;5.77;4.03;;;;;;;;;;4972563;28;20538;-74
2021/12/03 23:39:38;;;;;;;5.83;3.70;;;;;;;;;;4982678;28;20601;-73
2021/12/03 23:42:42;;;;;;;5.47;3.70;;;;;;;;;;4992731;28;20648;-74
2021/12/03 23:45:46;;;;;;;4.37;3.40;;;;;;;;;;4994415;28;20545;-74
2021/12/03 23:48:51;;;;;;;5.03;3.33;;;;;;;;;;4971977;28;20554;-74
2021/12/03 23:51:56;;;;;;;4.27;3.17;;;;;;;;;;4981162;28;20661;-76
2021/12/03 23:55:01;;;;;;;5.90;3.83;;;;;;;;;;4952683;28;20551;-76
2021/12/03 23:58:06;;;;;;;5.10;3.60;;;;;;;;;;4975572;28;20535;-76
